Time;durP1;ratioP1;P1;durP2;ratioP2;P2;SDS_P1;SDS_P2;PMS_P1;PMS_P2;Temp;Humidity;BMP_temperature;BMP_pressure;BME280_temperature;BME280_humidity;BME280_pressure;Samples;Min_cycle;Max_cycle;Signal;HPM_P1;HPM_P2
2022/03/08 00:02:25;;;;;;;4.63;4.23;;;;;;;;;;5028902;28;20282;-82
2022/03/08 00:04:52;;;;;;;3.97;3.57;;;;;;;;;;5028848;28;20230;-82
2022/03/08 00:07:19;;;;;;;4.43;4.03;;;;;;;;;;5028858;28;20209;-82
2022/03/08 00:09:47;;;;;;;4.23;3.93;;;;;;;;;;5029006;28;20289;-82
2022/03/08 00:12:15;;;;;;;4.27;3.87;;;;;;;;;;5029034;28;20245;-81
2022/03/08 00:14:42;;;;;;;4.00;3.53;;;;;;;;;;5028709;28;20199;-81
2022/03/08 00:17:10;;;;;;;4.40;3.77;;;;;;;;;;5028671;28;20628;-80
2022/03/08 00:19:37;;;;;;;3.60;3.30;;;;;;;;;;5028888;28;20281;-80
2022/03/08 00:22:05;;;;;;;3.47;3.17;;;;;;;;;;5028692;28;20201;-80
2022/03/08 00:24:32;;;;;;;3.73;3.43;;;;;;;;;;5028615;28;20285;-81
2022/03/08 00:26:59;;;;;;;4.23;3.83;;;;;;;;;;5028669;28;20293;-81
2022/03/08 00:29:28;;;;;;;4.57;3.60;;;;;;;;;;5028725;28;20293;-81
2022/03/08 00:31:55;;;;;;;3.57;3.27;;;;;;;;;;5028549;28;20265;-81
2022/03/08 00:34:22;;;;;;;3.77;3.40;;;;;;;;;;5028757;28;20226;-81
2022/03/08 00:36:49;;;;;;;3.90;3.50;;;;;;;;;;5028519;28;20214;-80
2022/03/08 00:39:18;;;;;;;4.67;4.27;;;;;;;;;;5028587;28;20290;-81
2022/03/08 00:41:45;;;;;;;4.23;3.83;;;;;;;;;;5027794;28;20716;-80
2022/03/08 00:44:13;;;;;;;5.20;4.70;;;;;;;;;;5027228;28;20205;-80
2022/03/08 00:46:41;;;;;;;4.50;3.97;;;;;;;;;;5028268;28;20203;-80
2022/03/08 00:49:08;;;;;;;6.80;4.70;;;;;;;;;;5030001;28;20591;-81
2022/03/08 00:51:36;;;;;;;4.07;3.77;;;;;;;;;;5031820;28;20229;-81
2022/03/08 00:54:04;;;;;;;5.30;4.67;;;;;;;;;;5032084;28;20221;-80
2022/03/08 00:56:31;;;;;;;7.20;5.90;;;;;;;;;;5031779;28;20634;-81
2022/03/08 00:58:58;;;;;;;6.80;5.30;;;;;;;;;;5031831;28;20289;-81
2022/03/08 01:01:25;;;;;;;4.03;3.63;;;;;;;;;;5032052;28;20245;-80
2022/03/08 01:03:54;;;;;;;4.27;3.87;;;;;;;;;;5031743;28;20580;-81
2022/03/08 01:06:21;;;;;;;4.17;3.47;;;;;;;;;;5031772;28;20321;-81
2022/03/08 01:08:48;;;;;;;4.60;4.20;;;;;;;;;;5031603;28;20297;-80
2022/03/08 01:11:16;;;;;;;5.23;4.57;;;;;;;;;;5031755;28;20222;-80
2022/03/08 01:13:43;;;;;;;3.97;3.57;;;;;;;;;;5031488;28;20293;-81
2022/03/08 01:16:10;;;;;;;4.70;4.10;;;;;;;;;;5031651;28;20289;-81
2022/03/08 01:18:37;;;;;;;4.50;4.10;;;;;;;;;;5031259;28;20282;-81
2022/03/08 01:21:06;;;;;;;4.87;4.37;;;;;;;;;;5031490;28;20293;-81
2022/03/08 01:23:33;;;;;;;4.80;4.27;;;;;;;;;;5031354;28;20289;-81
2022/03/08 01:26:00;;;;;;;6.60;5.90;;;;;;;;;;5031417;28;20199;-81
2022/03/08 01:28:28;;;;;;;4.47;4.07;;;;;;;;;;5031288;28;20195;-81
2022/03/08 01:30:55;;;;;;;5.63;5.00;;;;;;;;;;5030990;28;20591;-80
2022/03/08 01:33:22;;;;;;;4.70;4.30;;;;;;;;;;5031225;28;20293;-81
2022/03/08 01:35:49;;;;;;;5.53;5.03;;;;;;;;;;5031603;28;20281;-81
2022/03/08 01:38:18;;;;;;;7.93;5.47;;;;;;;;;;5030852;28;20282;-81
2022/03/08 01:40:45;;;;;;;7.57;6.23;;;;;;;;;;5031184;28;20286;-82
2022/03/08 01:43:13;;;;;;;6.00;4.43;;;;;;;;;;5031030;28;20293;-81
2022/03/08 01:45:40;;;;;;;4.83;4.37;;;;;;;;;;5031452;28;20641;-81
2022/03/08 01:48:07;;;;;;;4.80;4.10;;;;;;;;;;5031059;28;20198;-81
2022/03/08 01:50:35;;;;;;;4.73;4.17;;;;;;;;;;5030814;28;20203;-80
2022/03/08 01:53:02;;;;;;;5.97;5.37;;;;;;;;;;5030799;28;20236;-81
2022/03/08 01:55:31;;;;;;;5.80;4.47;;;;;;;;;;5031378;28;20317;-81
2022/03/08 01:57:58;;;;;;;6.07;4.40;;;;;;;;;;5030806;28;20293;-81
2022/03/08 02:00:27;;;;;;;4.80;4.17;;;;;;;;;;5030326;28;20614;-82
2022/03/08 02:02:55;;;;;;;5.13;4.50;;;;;;;;;;5030723;28;20294;-81
2022/03/08 02:05:23;;;;;;;5.27;3.83;;;;;;;;;;5030891;28;20252;-81
2022/03/08 02:07:50;;;;;;;4.77;4.37;;;;;;;;;;5030581;28;20198;-81
2022/03/08 02:10:17;;;;;;;5.23;4.73;;;;;;;;;;5030578;28;20234;-81
2022/03/08 02:12:46;;;;;;;6.57;5.63;;;;;;;;;;5030522;28;20322;-81
2022/03/08 02:15:15;;;;;;;6.10;5.20;;;;;;;;;;5030703;28;20195;-81
2022/03/08 02:17:43;;;;;;;7.63;6.23;;;;;;;;;;5030418;28;20346;-81
2022/03/08 02:20:11;;;;;;;5.23;4.73;;;;;;;;;;5030637;28;20297;-81
2022/03/08 02:22:40;;;;;;;4.67;3.70;;;;;;;;;;5030658;28;20589;-81
2022/03/08 02:25:08;;;;;;;4.50;4.10;;;;;;;;;;5030593;28;20290;-81
2022/03/08 02:27:39;;;;;;;4.63;4.13;;;;;;;;;;5030352;28;20294;-81
2022/03/08 02:30:08;;;;;;;4.60;4.00;;;;;;;;;;5030572;28;20187;-81
2022/03/08 02:32:35;;;;;;;5.23;4.70;;;;;;;;;;5029936;28;20230;-81
2022/03/08 02:35:06;;;;;;;5.20;4.60;;;;;;;;;;5030697;28;20233;-82
2022/03/08 02:37:40;;;;;;;5.83;4.60;;;;;;;;;;5030213;28;20189;-81
2022/03/08 02:40:08;;;;;;;5.57;5.07;;;;;;;;;;5030349;28;20229;-81
2022/03/08 02:42:36;;;;;;;4.60;4.20;;;;;;;;;;5030056;28;20575;-81
2022/03/08 02:45:04;;;;;;;5.10;4.53;;;;;;;;;;5030233;28;20199;-82
2022/03/08 02:47:31;;;;;;;5.07;4.30;;;;;;;;;;5030081;28;20697;-82
2022/03/08 02:49:58;;;;;;;4.40;4.00;;;;;;;;;;5030165;28;20242;-81
2022/03/08 02:52:26;;;;;;;3.93;3.53;;;;;;;;;;5029773;28;20702;-81
2022/03/08 02:54:54;;;;;;;4.43;4.03;;;;;;;;;;5030205;28;20278;-81
2022/03/08 02:57:21;;;;;;;26.90;21.70;;;;;;;;;;5030246;28;20286;-81
2022/03/08 02:59:49;;;;;;;37.67;26.10;;;;;;;;;;5030397;28;20199;-80
2022/03/08 03:02:16;;;;;;;19.47;14.03;;;;;;;;;;5029780;28;20620;-81
2022/03/08 03:04:43;;;;;;;10.00;8.73;;;;;;;;;;5030019;28;20234;-81
2022/03/08 03:07:10;;;;;;;5.40;4.83;;;;;;;;;;5029704;28;20268;-81
2022/03/08 03:09:38;;;;;;;4.60;4.20;;;;;;;;;;5030256;28;20205;-81
2022/03/08 03:12:08;;;;;;;4.80;4.30;;;;;;;;;;5028736;28;20729;-81
2022/03/08 03:14:36;;;;;;;3.87;3.57;;;;;;;;;;5029669;28;20183;-81
2022/03/08 03:17:03;;;;;;;4.57;4.17;;;;;;;;;;5029473;28;20269;-81
2022/03/08 03:19:30;;;;;;;5.47;4.97;;;;;;;;;;5030095;28;20221;-81
2022/03/08 03:21:57;;;;;;;6.97;6.13;;;;;;;;;;5029776;28;20575;-81
2022/03/08 03:24:24;;;;;;;5.83;5.33;;;;;;;;;;5029438;28;20230;-81
2022/03/08 03:26:52;;;;;;;6.80;6.13;;;;;;;;;;5029378;28;20213;-81
2022/03/08 03:29:20;;;;;;;5.27;4.77;;;;;;;;;;5029630;28;20238;-81
2022/03/08 03:31:48;;;;;;;4.80;4.40;;;;;;;;;;5029209;28;20275;-81
2022/03/08 03:34:15;;;;;;;4.40;3.97;;;;;;;;;;5029618;28;20278;-81
2022/03/08 03:36:42;;;;;;;5.20;4.57;;;;;;;;;;5029536;28;20283;-81
2022/03/08 03:39:09;;;;;;;13.83;8.97;;;;;;;;;;5029765;28;20226;-81
2022/03/08 03:41:36;;;;;;;11.20;8.20;;;;;;;;;;5029201;28;20209;-81
2022/03/08 03:44:04;;;;;;;8.13;6.30;;;;;;;;;;5029146;28;20213;-81
2022/03/08 03:46:32;;;;;;;5.37;4.50;;;;;;;;;;5029205;28;20286;-81
2022/03/08 03:49:00;;;;;;;5.67;5.07;;;;;;;;;;5029547;28;20286;-81
2022/03/08 03:51:27;;;;;;;4.67;4.27;;;;;;;;;;5029151;28;20706;-81
2022/03/08 03:53:54;;;;;;;6.23;5.40;;;;;;;;;;5028890;28;20313;-81
2022/03/08 03:56:21;;;;;;;5.53;4.97;;;;;;;;;;5029672;28;20588;-82
2022/03/08 03:58:49;;;;;;;5.63;5.07;;;;;;;;;;5029417;28;20253;-82
2022/03/08 04:01:16;;;;;;;6.50;5.27;;;;;;;;;;5039923;28;20568;-81
2022/03/08 04:03:44;;;;;;;5.97;5.40;;;;;;;;;;5048519;28;20198;-80
2022/03/08 04:06:12;;;;;;;5.00;4.50;;;;;;;;;;5048699;28;20237;-81
2022/03/08 04:08:39;;;;;;;5.07;4.57;;;;;;;;;;5048683;28;20237;-81
2022/03/08 04:11:06;;;;;;;4.87;4.37;;;;;;;;;;5048530;28;20198;-81
2022/03/08 04:13:33;;;;;;;4.80;4.40;;;;;;;;;;5048478;28;20774;-80
2022/03/08 04:16:01;;;;;;;4.50;4.10;;;;;;;;;;5048573;28;20281;-81
2022/03/08 04:18:29;;;;;;;4.40;4.00;;;;;;;;;;5048551;28;20285;-80
2022/03/08 04:20:57;;;;;;;6.53;6.03;;;;;;;;;;5047789;28;20206;-81
2022/03/08 04:23:24;;;;;;;5.27;4.77;;;;;;;;;;5049086;28;20288;-80
2022/03/08 04:25:52;;;;;;;4.30;3.90;;;;;;;;;;5051226;28;20765;-80
2022/03/08 04:28:19;;;;;;;4.57;4.17;;;;;;;;;;5051201;28;20284;-80
2022/03/08 04:30:46;;;;;;;4.47;4.07;;;;;;;;;;5051124;28;20237;-80
2022/03/08 04:33:13;;;;;;;5.13;4.63;;;;;;;;;;5050844;28;20299;-80
2022/03/08 04:35:41;;;;;;;4.30;3.90;;;;;;;;;;5050591;28;20240;-80
2022/03/08 04:38:09;;;;;;;3.77;3.47;;;;;;;;;;5051225;28;20233;-80
2022/03/08 04:40:37;;;;;;;4.57;3.83;;;;;;;;;;5050935;28;20576;-80
2022/03/08 04:43:04;;;;;;;3.27;3.07;;;;;;;;;;5050925;28;20198;-80
2022/03/08 04:45:31;;;;;;;7.90;6.40;;;;;;;;;;5050933;28;20281;-80
2022/03/08 04:47:59;;;;;;;5.50;5.00;;;;;;;;;;5050125;28;20686;-80
2022/03/08 04:50:26;;;;;;;5.30;4.70;;;;;;;;;;5050874;28;20197;-80
2022/03/08 04:52:53;;;;;;;5.83;5.27;;;;;;;;;;5046333;28;20308;-81
2022/03/08 04:55:22;;;;;;;15.93;10.67;;;;;;;;;;5050597;28;20782;-81
2022/03/08 04:57:49;;;;;;;17.30;13.00;;;;;;;;;;5050171;28;20204;-81
2022/03/08 05:00:18;;;;;;;19.03;14.40;;;;;;;;;;5050201;28;20201;-81
2022/03/08 05:02:46;;;;;;;18.00;14.13;;;;;;;;;;5050312;28;20736;-81
2022/03/08 05:05:14;;;;;;;18.33;14.03;;;;;;;;;;5050216;28;20209;-80
2022/03/08 05:07:42;;;;;;;6.93;6.23;;;;;;;;;;5051483;28;20194;-81
2022/03/08 05:10:12;;;;;;;5.67;5.17;;;;;;;;;;5051391;28;20666;-81
2022/03/08 05:12:41;;;;;;;8.33;7.23;;;;;;;;;;5051234;28;20210;-81
2022/03/08 05:15:10;;;;;;;8.17;7.37;;;;;;;;;;5051267;28;20194;-81
2022/03/08 05:17:37;;;;;;;5.93;5.33;;;;;;;;;;5050778;28;20262;-82
2022/03/08 05:20:06;;;;;;;6.70;5.90;;;;;;;;;;5051595;28;20201;-81
2022/03/08 05:22:34;;;;;;;8.23;7.43;;;;;;;;;;5051078;28;20202;-82
2022/03/08 05:25:01;;;;;;;9.93;8.27;;;;;;;;;;5051209;28;20304;-81
2022/03/08 05:27:28;;;;;;;14.30;11.97;;;;;;;;;;5051099;28;20237;-81
2022/03/08 05:29:57;;;;;;;32.73;27.40;;;;;;;;;;5050899;28;20697;-81
2022/03/08 05:32:24;;;;;;;53.70;48.03;;;;;;;;;;5051237;28;20233;-81
2022/03/08 05:34:51;;;;;;;39.87;34.83;;;;;;;;;;5050484;28;20207;-81
2022/03/08 05:37:19;;;;;;;35.10;31.67;;;;;;;;;;5050646;28;20629;-81
2022/03/08 05:39:46;;;;;;;29.20;26.30;;;;;;;;;;5051012;28;20289;-81
2022/03/08 05:42:13;;;;;;;15.13;13.60;;;;;;;;;;5050799;28;20284;-81
2022/03/08 05:44:40;;;;;;;7.20;6.50;;;;;;;;;;5050834;28;20206;-81
2022/03/08 05:47:09;;;;;;;10.20;6.67;;;;;;;;;;5050680;28;20208;-81
2022/03/08 05:49:36;;;;;;;7.77;7.00;;;;;;;;;;5051180;28;20573;-81
2022/03/08 05:52:04;;;;;;;6.20;5.57;;;;;;;;;;5050816;28;20194;-81
2022/03/08 05:54:32;;;;;;;7.63;6.83;;;;;;;;;;5050969;28;20330;-80
2022/03/08 05:56:59;;;;;;;8.00;7.20;;;;;;;;;;5050918;28;20193;-81
2022/03/08 05:59:26;;;;;;;6.43;5.37;;;;;;;;;;5050882;28;20202;-81
2022/03/08 06:01:53;;;;;;;6.87;5.87;;;;;;;;;;5050621;28;20287;-81
2022/03/08 06:04:22;;;;;;;13.93;12.43;;;;;;;;;;5050843;28;20222;-81
2022/03/08 06:06:49;;;;;;;11.67;9.73;;;;;;;;;;5050758;28;20232;-81
2022/03/08 06:09:17;;;;;;;9.30;8.40;;;;;;;;;;5050704;28;20317;-81
2022/03/08 06:11:44;;;;;;;22.83;19.67;;;;;;;;;;5050254;28;20209;-81
2022/03/08 06:14:11;;;;;;;21.27;18.30;;;;;;;;;;5050554;28;20221;-81
2022/03/08 06:16:38;;;;;;;23.97;19.47;;;;;;;;;;5050241;28;20269;-80
2022/03/08 06:19:06;;;;;;;29.37;20.90;;;;;;;;;;5050377;28;20284;-81
2022/03/08 06:21:34;;;;;;;23.37;17.63;;;;;;;;;;5050450;28;20198;-81
2022/03/08 06:24:02;;;;;;;20.10;15.87;;;;;;;;;;5050448;28;20233;-81
2022/03/08 06:26:29;;;;;;;13.40;10.57;;;;;;;;;;5050625;28;20555;-81
2022/03/08 06:28:56;;;;;;;11.03;9.70;;;;;;;;;;5050190;28;20673;-81
2022/03/08 06:31:23;;;;;;;20.07;17.87;;;;;;;;;;5050701;28;20281;-81
2022/03/08 06:33:51;;;;;;;25.50;15.77;;;;;;;;;;5050254;28;20316;-81
2022/03/08 06:36:18;;;;;;;45.37;28.53;;;;;;;;;;5049974;28;20662;-81
2022/03/08 06:38:46;;;;;;;159.93;90.33;;;;;;;;;;5050160;28;20285;-81
2022/03/08 06:41:14;;;;;;;116.27;69.53;;;;;;;;;;5050167;28;20202;-81
2022/03/08 06:43:41;;;;;;;78.30;45.77;;;;;;;;;;5050132;28;20282;-81
2022/03/08 06:46:08;;;;;;;54.97;38.93;;;;;;;;;;5048950;28;20634;-81
2022/03/08 06:48:36;;;;;;;31.40;24.80;;;;;;;;;;5049642;28;20194;-81
2022/03/08 06:51:03;;;;;;;62.60;40.47;;;;;;;;;;5050037;28;20254;-81
2022/03/08 06:53:31;;;;;;;51.17;37.33;;;;;;;;;;5049501;28;20312;-81
2022/03/08 06:55:59;;;;;;;22.80;18.60;;;;;;;;;;5050336;28;20277;-81
2022/03/08 06:58:27;;;;;;;10.83;9.83;;;;;;;;;;5049759;28;20190;-81
2022/03/08 07:00:54;;;;;;;9.07;8.03;;;;;;;;;;5050149;28;20277;-81
2022/03/08 07:03:22;;;;;;;9.53;7.57;;;;;;;;;;5049503;28;20229;-81
2022/03/08 07:05:49;;;;;;;6.90;6.03;;;;;;;;;;5048768;28;20300;-81
2022/03/08 07:08:16;;;;;;;6.17;5.37;;;;;;;;;;5048280;28;20198;-81
2022/03/08 07:10:43;;;;;;;7.13;6.43;;;;;;;;;;5049671;28;20289;-80
2022/03/08 07:13:12;;;;;;;8.30;7.20;;;;;;;;;;5049763;28;20599;-81
2022/03/08 07:15:39;;;;;;;8.67;7.83;;;;;;;;;;5049373;28;20229;-81
2022/03/08 07:18:06;;;;;;;9.30;7.13;;;;;;;;;;5049395;28;20237;-81
2022/03/08 07:20:34;;;;;;;7.73;6.93;;;;;;;;;;5049606;28;20289;-82
2022/03/08 07:23:01;;;;;;;7.23;6.53;;;;;;;;;;5049337;28;20205;-81
2022/03/08 07:25:29;;;;;;;6.73;6.10;;;;;;;;;;5049576;28;20222;-81
2022/03/08 07:27:56;;;;;;;7.33;6.57;;;;;;;;;;5049617;28;20198;-82
2022/03/08 07:30:25;;;;;;;8.00;6.93;;;;;;;;;;5049368;28;20244;-81
2022/03/08 07:32:52;;;;;;;7.40;6.47;;;;;;;;;;5049146;28;20193;-81
2022/03/08 07:35:19;;;;;;;7.57;6.60;;;;;;;;;;5049428;28;20297;-81
2022/03/08 07:37:46;;;;;;;7.67;6.83;;;;;;;;;;5049262;27;20243;-81
2022/03/08 07:40:14;;;;;;;9.70;8.70;;;;;;;;;;5049611;28;20206;-81
2022/03/08 07:42:42;;;;;;;93.17;49.70;;;;;;;;;;5049246;28;20611;-82
2022/03/08 07:45:10;;;;;;;62.83;34.63;;;;;;;;;;5049260;28;20245;-81
2022/03/08 07:47:38;;;;;;;96.90;54.47;;;;;;;;;;5048711;28;20202;-82
2022/03/08 07:50:07;;;;;;;40.50;25.10;;;;;;;;;;5049364;28;20297;-81
2022/03/08 07:52:34;;;;;;;42.03;24.93;;;;;;;;;;5049207;28;20307;-82
2022/03/08 07:55:02;;;;;;;32.33;19.20;;;;;;;;;;5049170;28;20230;-81
2022/03/08 07:57:30;;;;;;;9.70;8.33;;;;;;;;;;5048653;28;20266;-81
2022/03/08 07:59:57;;;;;;;7.80;7.00;;;;;;;;;;5048989;28;20294;-82
2022/03/08 08:02:24;;;;;;;8.13;6.83;;;;;;;;;;5048840;28;20198;-82
2022/03/08 08:04:53;;;;;;;9.57;7.30;;;;;;;;;;5048907;28;20190;-82
2022/03/08 08:07:20;;;;;;;7.77;6.10;;;;;;;;;;5048680;28;20288;-82
2022/03/08 08:09:47;;;;;;;8.63;7.43;;;;;;;;;;5048283;28;20233;-82
2022/03/08 08:12:15;;;;;;;9.23;7.57;;;;;;;;;;5048741;28;20289;-82
2022/03/08 08:14:42;;;;;;;8.20;6.80;;;;;;;;;;5048748;28;20231;-82
2022/03/08 08:17:10;;;;;;;8.00;7.00;;;;;;;;;;5048539;28;20320;-82
2022/03/08 08:19:39;;;;;;;8.10;7.23;;;;;;;;;;5048822;28;20198;-82
2022/03/08 08:22:07;;;;;;;7.97;6.80;;;;;;;;;;5048664;28;20719;-82
2022/03/08 08:24:35;;;;;;;7.67;6.83;;;;;;;;;;5048731;28;20284;-82
2022/03/08 08:27:02;;;;;;;8.90;7.77;;;;;;;;;;5048807;28;20205;-82
2022/03/08 08:29:30;;;;;;;8.83;7.90;;;;;;;;;;5048431;28;20229;-82
2022/03/08 08:31:57;;;;;;;9.07;8.17;;;;;;;;;;5048554;28;20703;-82
2022/03/08 08:34:24;;;;;;;8.77;7.90;;;;;;;;;;5048611;28;20308;-82
2022/03/08 08:36:51;;;;;;;9.23;8.10;;;;;;;;;;5048336;28;20230;-82
2022/03/08 08:39:20;;;;;;;8.30;6.93;;;;;;;;;;5048412;28;20745;-82
2022/03/08 08:41:47;;;;;;;9.30;8.13;;;;;;;;;;5048420;28;20292;-82
2022/03/08 08:44:14;;;;;;;8.30;7.43;;;;;;;;;;5048436;28;20244;-82
2022/03/08 08:46:42;;;;;;;9.50;8.50;;;;;;;;;;5048244;28;20659;-82
2022/03/08 08:49:09;;;;;;;8.57;7.63;;;;;;;;;;5048345;28;20293;-82
2022/03/08 08:51:36;;;;;;;9.93;7.83;;;;;;;;;;5048024;28;20277;-82
2022/03/08 08:54:03;;;;;;;9.47;8.50;;;;;;;;;;5048502;28;20294;-82
2022/03/08 08:56:35;;;;;;;8.53;7.67;;;;;;;;;;5048483;28;20286;-82
2022/03/08 08:59:02;;;;;;;7.67;6.97;;;;;;;;;;5048370;28;20186;-82
2022/03/08 09:01:29;;;;;;;8.93;7.83;;;;;;;;;;5048193;28;20198;-82
2022/03/08 09:03:57;;;;;;;11.53;9.47;;;;;;;;;;5048201;28;20592;-83
2022/03/08 09:06:24;;;;;;;9.33;8.33;;;;;;;;;;5047978;28;20281;-82
2022/03/08 09:08:51;;;;;;;15.40;13.47;;;;;;;;;;5048103;28;20589;-83
2022/03/08 09:11:18;;;;;;;7.90;7.10;;;;;;;;;;5051086;28;20231;-83
2022/03/08 09:13:47;;;;;;;14.80;13.17;;;;;;;;;;5051346;28;20672;-82
2022/03/08 09:16:15;;;;;;;13.53;10.70;;;;;;;;;;5051142;28;20273;-83
2022/03/08 09:18:42;;;;;;;8.60;7.47;;;;;;;;;;5051355;28;20186;-83
2022/03/08 09:21:11;;;;;;;8.30;7.47;;;;;;;;;;5051414;28;20202;-83
2022/03/08 09:23:38;;;;;;;8.37;7.57;;;;;;;;;;5051301;28;20190;-82
2022/03/08 09:26:06;;;;;;;10.70;8.27;;;;;;;;;;5051544;28;20284;-83
2022/03/08 09:28:34;;;;;;;14.20;11.53;;;;;;;;;;5051576;28;20282;-82
2022/03/08 09:31:02;;;;;;;13.50;11.57;;;;;;;;;;5051319;28;20206;-83
2022/03/08 09:33:30;;;;;;;12.27;10.63;;;;;;;;;;5050915;28;20237;-82
2022/03/08 09:35:57;;;;;;;13.70;12.13;;;;;;;;;;5051018;28;20301;-83
2022/03/08 09:38:24;;;;;;;17.70;15.57;;;;;;;;;;5051016;28;20202;-83
2022/03/08 09:40:53;;;;;;;18.63;16.50;;;;;;;;;;5051131;28;20233;-83
2022/03/08 09:43:20;;;;;;;18.17;16.33;;;;;;;;;;5050902;28;20237;-83
2022/03/08 09:45:48;;;;;;;25.60;20.43;;;;;;;;;;5051151;28;20202;-83
2022/03/08 09:48:17;;;;;;;14.63;12.20;;;;;;;;;;5051196;28;20286;-83
2022/03/08 09:50:44;;;;;;;20.53;16.13;;;;;;;;;;5051103;28;20202;-82
2022/03/08 09:53:12;;;;;;;25.70;20.93;;;;;;;;;;5051092;28;20634;-83
2022/03/08 09:55:40;;;;;;;13.97;12.23;;;;;;;;;;5050729;28;20221;-82
2022/03/08 09:58:07;;;;;;;11.03;9.93;;;;;;;;;;5050753;28;20233;-82
2022/03/08 10:00:35;;;;;;;24.47;18.60;;;;;;;;;;5051194;28;20216;-83
2022/03/08 10:03:02;;;;;;;26.73;19.43;;;;;;;;;;5050932;28;20220;-83
2022/03/08 10:05:39;;;;;;;17.50;13.77;;;;;;;;;;5050811;28;20198;-83
2022/03/08 10:08:10;;;;;;;26.40;22.00;;;;;;;;;;5050664;28;20223;-82
2022/03/08 10:10:53;;;;;;;21.23;17.37;;;;;;;;;;5051341;28;20278;-83
2022/03/08 10:13:21;;;;;;;26.37;22.70;;;;;;;;;;5050586;28;20641;-82
2022/03/08 10:16:04;;;;;;;15.23;13.50;;;;;;;;;;5051078;28;20308;-83
2022/03/08 10:18:35;;;;;;;11.40;9.27;;;;;;;;;;5050569;28;20268;-83
2022/03/08 10:21:03;;;;;;;23.23;15.97;;;;;;;;;;5050290;28;20195;-82
2022/03/08 10:23:40;;;;;;;23.90;20.73;;;;;;;;;;5050286;28;20198;-82
2022/03/08 10:26:11;;;;;;;11.67;10.47;;;;;;;;;;5050566;28;20201;-82
2022/03/08 10:28:45;;;;;;;13.40;11.57;;;;;;;;;;5050290;28;20186;-82
2022/03/08 10:31:13;;;;;;;15.97;14.27;;;;;;;;;;5050482;28;20239;-82
2022/03/08 10:33:41;;;;;;;18.90;15.20;;;;;;;;;;5050192;28;20201;-82
2022/03/08 10:36:15;;;;;;;13.93;12.50;;;;;;;;;;5050246;28;20263;-83
2022/03/08 10:38:58;;;;;;;15.60;13.93;;;;;;;;;;5050219;28;20221;-82
2022/03/08 10:41:25;;;;;;;13.47;10.57;;;;;;;;;;5050028;28;20337;-82
2022/03/08 10:43:52;;;;;;;12.23;10.70;;;;;;;;;;5050172;28;20248;-82
2022/03/08 10:46:19;;;;;;;12.30;10.60;;;;;;;;;;5050364;28;20724;-82
2022/03/08 10:48:48;;;;;;;11.37;10.03;;;;;;;;;;5050544;28;20202;-82
2022/03/08 10:51:18;;;;;;;13.57;11.00;;;;;;;;;;5049901;28;20206;-82
2022/03/08 10:53:45;;;;;;;14.27;12.77;;;;;;;;;;5049954;28;20205;-82
2022/03/08 10:56:13;;;;;;;16.13;11.67;;;;;;;;;;5050168;28;20276;-82
2022/03/08 10:58:50;;;;;;;9.67;8.67;;;;;;;;;;5050073;28;20198;-82
2022/03/08 11:01:18;;;;;;;28.83;19.57;;;;;;;;;;5049934;28;20197;-82
2022/03/08 11:03:56;;;;;;;11.10;9.80;;;;;;;;;;5049818;28;20237;-82
2022/03/08 11:06:26;;;;;;;8.87;7.63;;;;;;;;;;5050050;28;20238;-82
2022/03/08 11:08:54;;;;;;;13.63;12.07;;;;;;;;;;5049799;28;20194;-82
2022/03/08 11:11:22;;;;;;;8.83;7.90;;;;;;;;;;5049763;28;20280;-82
2022/03/08 11:13:51;;;;;;;7.90;7.10;;;;;;;;;;5049619;28;20281;-82
2022/03/08 11:16:19;;;;;;;7.43;6.67;;;;;;;;;;5049452;28;20241;-82
2022/03/08 11:18:50;;;;;;;7.17;6.47;;;;;;;;;;5049270;28;20201;-82
2022/03/08 11:21:19;;;;;;;7.83;6.87;;;;;;;;;;5049648;28;20189;-82
2022/03/08 11:23:47;;;;;;;7.93;7.13;;;;;;;;;;5049727;28;20294;-82
2022/03/08 11:26:16;;;;;;;9.03;7.60;;;;;;;;;;5049472;28;20289;-82
2022/03/08 11:28:46;;;;;;;9.57;8.67;;;;;;;;;;5049083;28;20202;-82
2022/03/08 11:31:17;;;;;;;11.33;8.27;;;;;;;;;;5049903;27;20190;-82
2022/03/08 11:33:49;;;;;;;10.00;8.27;;;;;;;;;;5048520;28;20182;-82
2022/03/08 11:36:21;;;;;;;9.53;7.50;;;;;;;;;;5049306;28;20217;-82
2022/03/08 11:39:17;;;;;;;18.87;13.67;;;;;;;;;;5049221;28;20281;-82
2022/03/08 11:41:46;;;;;;;16.90;12.13;;;;;;;;;;5042059;27;20701;-81
2022/03/08 11:44:24;;;;;;;12.03;9.87;;;;;;;;;;5049231;28;20292;-82
2022/03/08 11:47:12;;;;;;;9.60;8.13;;;;;;;;;;5049115;28;20658;-82
2022/03/08 11:49:45;;;;;;;8.97;7.23;;;;;;;;;;5049171;28;20197;-82
2022/03/08 11:52:18;;;;;;;8.63;7.40;;;;;;;;;;5048767;28;20281;-82
2022/03/08 11:55:03;;;;;;;7.30;6.27;;;;;;;;;;5049069;28;20216;-82
2022/03/08 11:57:51;;;;;;;6.17;5.57;;;;;;;;;;5048917;28;20247;-82
2022/03/08 12:00:19;;;;;;;6.77;5.77;;;;;;;;;;5040768;28;20208;-82
2022/03/08 12:02:47;;;;;;;6.13;5.63;;;;;;;;;;5049092;28;20300;-82
2022/03/08 12:05:54;;;;;;;6.23;5.63;;;;;;;;;;5048797;28;20284;-82
2022/03/08 12:08:44;;;;;;;8.10;6.70;;;;;;;;;;5043890;28;20198;-82
2022/03/08 12:11:29;;;;;;;7.33;6.73;;;;;;;;;;5049131;28;20311;-82
2022/03/08 12:14:09;;;;;;;7.17;6.33;;;;;;;;;;5048639;28;20641;-82
2022/03/08 12:16:39;;;;;;;7.13;6.43;;;;;;;;;;5048721;28;20237;-82
2022/03/08 12:19:07;;;;;;;8.67;7.87;;;;;;;;;;5049144;28;20595;-82
2022/03/08 12:21:37;;;;;;;7.90;7.10;;;;;;;;;;5048813;28;20253;-82
2022/03/08 12:24:07;;;;;;;9.17;7.17;;;;;;;;;;5048630;28;20193;-82
2022/03/08 12:26:37;;;;;;;10.27;8.50;;;;;;;;;;5048682;28;20208;-82
2022/03/08 12:29:23;;;;;;;20.13;12.73;;;;;;;;;;5049106;28;20637;-82
2022/03/08 12:32:12;;;;;;;13.10;10.23;;;;;;;;;;5048399;28;20205;-81
2022/03/08 12:34:43;;;;;;;11.50;9.60;;;;;;;;;;5048520;28;20202;-82
2022/03/08 12:37:11;;;;;;;9.57;8.63;;;;;;;;;;5048781;28;20681;-82
2022/03/08 12:39:49;;;;;;;8.10;7.30;;;;;;;;;;5049003;28;20229;-82
2022/03/08 12:42:29;;;;;;;9.27;8.27;;;;;;;;;;5048530;28;20193;-82
2022/03/08 12:44:58;;;;;;;9.93;8.70;;;;;;;;;;5050580;28;20190;-82
2022/03/08 12:47:27;;;;;;;9.80;8.27;;;;;;;;;;5052106;28;20240;-82
2022/03/08 12:49:55;;;;;;;9.13;8.23;;;;;;;;;;5051944;28;20280;-82
2022/03/08 12:52:22;;;;;;;9.43;8.27;;;;;;;;;;5052039;28;20244;-82
2022/03/08 12:54:50;;;;;;;11.93;9.90;;;;;;;;;;5051548;28;20599;-82
2022/03/08 12:57:17;;;;;;;10.40;8.93;;;;;;;;;;5051744;28;20284;-81
2022/03/08 12:59:51;;;;;;;11.07;8.93;;;;;;;;;;5051767;28;20693;-82
2022/03/08 13:02:20;;;;;;;10.13;7.93;;;;;;;;;;5051601;28;20280;-82
2022/03/08 13:04:48;;;;;;;10.97;8.93;;;;;;;;;;5051426;28;20198;-82
2022/03/08 13:07:16;;;;;;;8.93;8.03;;;;;;;;;;5051654;28;20285;-82
2022/03/08 13:09:55;;;;;;;9.27;8.37;;;;;;;;;;5051639;28;20753;-82
2022/03/08 13:12:23;;;;;;;9.87;8.87;;;;;;;;;;5051389;28;20293;-82
2022/03/08 13:15:16;;;;;;;20.07;16.33;;;;;;;;;;5051615;28;20580;-83
2022/03/08 13:17:45;;;;;;;10.43;9.43;;;;;;;;;;5051357;28;20257;-83
2022/03/08 13:20:30;;;;;;;9.57;7.67;;;;;;;;;;5051866;28;20193;-83
2022/03/08 13:22:59;;;;;;;11.83;10.03;;;;;;;;;;5051222;28;20281;-83
2022/03/08 13:25:26;;;;;;;11.03;9.63;;;;;;;;;;5051392;28;20229;-83
2022/03/08 13:27:59;;;;;;;10.67;8.33;;;;;;;;;;5051335;28;20666;-83
2022/03/08 13:30:30;;;;;;;9.27;8.30;;;;;;;;;;5051293;28;20276;-83
2022/03/08 13:33:14;;;;;;;9.53;8.63;;;;;;;;;;5051162;28;20281;-83
2022/03/08 13:35:43;;;;;;;10.30;9.30;;;;;;;;;;5051552;28;20202;-83
2022/03/08 13:38:11;;;;;;;10.37;9.27;;;;;;;;;;5051026;28;20210;-83
2022/03/08 13:40:39;;;;;;;11.97;10.73;;;;;;;;;;5051260;28;20201;-83
2022/03/08 13:43:07;;;;;;;10.70;8.90;;;;;;;;;;5050802;28;20198;-83
2022/03/08 13:45:36;;;;;;;12.10;10.80;;;;;;;;;;5051422;28;20209;-83
2022/03/08 13:48:05;;;;;;;10.40;9.37;;;;;;;;;;5050992;28;20246;-83
2022/03/08 13:50:32;;;;;;;10.43;9.33;;;;;;;;;;5051318;28;20277;-82
2022/03/08 13:53:06;;;;;;;10.17;9.10;;;;;;;;;;5051051;28;20585;-83
2022/03/08 13:55:34;;;;;;;10.20;9.10;;;;;;;;;;5050171;28;20206;-82
2022/03/08 13:58:02;;;;;;;10.03;8.73;;;;;;;;;;5050930;28;20247;-82
2022/03/08 14:00:32;;;;;;;10.67;9.57;;;;;;;;;;5050855;28;20237;-82
2022/03/08 14:03:02;;;;;;;10.27;9.27;;;;;;;;;;5050609;28;20197;-82
2022/03/08 14:05:30;;;;;;;12.50;10.27;;;;;;;;;;5050793;28;20262;-82
2022/03/08 14:07:58;;;;;;;10.60;9.00;;;;;;;;;;5050542;28;20677;-82
2022/03/08 14:10:26;;;;;;;10.50;9.40;;;;;;;;;;5050783;28;20194;-82
2022/03/08 14:12:53;;;;;;;10.60;9.40;;;;;;;;;;5050589;28;20201;-82
2022/03/08 14:15:22;;;;;;;10.93;9.10;;;;;;;;;;5050551;28;20268;-82
2022/03/08 14:18:06;;;;;;;12.10;9.73;;;;;;;;;;5050376;28;20588;-82
2022/03/08 14:20:38;;;;;;;10.70;9.60;;;;;;;;;;5050489;28;20281;-82
2022/03/08 14:23:07;;;;;;;13.70;10.47;;;;;;;;;;5050531;28;20196;-82
2022/03/08 14:25:35;;;;;;;10.13;8.63;;;;;;;;;;5050414;28;20198;-82
2022/03/08 14:28:02;;;;;;;11.17;9.27;;;;;;;;;;5050063;28;20578;-82
2022/03/08 14:30:30;;;;;;;12.20;9.87;;;;;;;;;;5050680;28;20236;-82
2022/03/08 14:33:09;;;;;;;12.50;11.10;;;;;;;;;;5050186;28;20236;-82
2022/03/08 14:35:37;;;;;;;8.50;7.60;;;;;;;;;;5050510;28;20206;-82
2022/03/08 14:38:06;;;;;;;11.10;10.00;;;;;;;;;;5050228;28;20555;-83
2022/03/08 14:40:39;;;;;;;12.60;9.67;;;;;;;;;;5050353;28;20198;-82
2022/03/08 14:43:08;;;;;;;11.07;9.97;;;;;;;;;;5050110;28;20288;-82
2022/03/08 14:45:35;;;;;;;12.13;10.53;;;;;;;;;;5050370;28;20739;-82